sensor_id;sensor_type;location;lat;lon;timestamp;P1;durP1;ratioP1;P2;durP2;ratioP2
81725;SDS011;71135;16.738;-14.648;2024-01-30T00:01:25;19.35;;;11.60;;
81725;SDS011;71135;16.738;-14.648;2024-01-30T00:03:54;16.83;;;10.98;;
81725;SDS011;71135;16.738;-14.648;2024-01-30T00:06:23;16.25;;;11.20;;
81725;SDS011;71135;16.738;-14.648;2024-01-30T00:08:53;17.38;;;10.63;;
81725;SDS011;71135;16.738;-14.648;2024-01-30T00:11:22;17.10;;;11.07;;
81725;SDS011;71135;16.738;-14.648;2024-01-30T00:13:56;16.83;;;10.93;;
81725;SDS011;71135;16.738;-14.648;2024-01-30T00:16:25;15.60;;;11.10;;
81725;SDS011;71135;16.738;-14.648;2024-01-30T00:18:56;19.15;;;11.30;;
81725;SDS011;71135;16.738;-14.648;2024-01-30T00:21:27;17.58;;;10.93;;
81725;SDS011;71135;16.738;-14.648;2024-01-30T00:23:56;17.45;;;11.43;;
81725;SDS011;71135;16.738;-14.648;2024-01-30T00:26:25;18.08;;;10.68;;
81725;SDS011;71135;16.738;-14.648;2024-01-30T00:28:57;18.88;;;11.00;;
81725;SDS011;71135;16.738;-14.648;2024-01-30T00:31:27;18.20;;;11.55;;
81725;SDS011;71135;16.738;-14.648;2024-01-30T00:33:56;17.42;;;10.77;;
81725;SDS011;71135;16.738;-14.648;2024-01-30T00:36:25;17.83;;;10.02;;
81725;SDS011;71135;16.738;-14.648;2024-01-30T00:38:55;15.98;;;10.82;;
81725;SDS011;71135;16.738;-14.648;2024-01-30T00:41:25;17.90;;;10.88;;
81725;SDS011;71135;16.738;-14.648;2024-01-30T00:43:54;14.60;;;10.05;;
81725;SDS011;71135;16.738;-14.648;2024-01-30T00:46:25;17.05;;;10.48;;
81725;SDS011;71135;16.738;-14.648;2024-01-30T00:48:54;15.90;;;10.65;;
81725;SDS011;71135;16.738;-14.648;2024-01-30T00:51:24;19.00;;;11.10;;
81725;SDS011;71135;16.738;-14.648;2024-01-30T00:53:55;17.77;;;10.85;;
81725;SDS011;71135;16.738;-14.648;2024-01-30T00:56:24;18.27;;;11.30;;
81725;SDS011;71135;16.738;-14.648;2024-01-30T00:58:53;17.23;;;10.88;;
81725;SDS011;71135;16.738;-14.648;2024-01-30T01:01:25;16.25;;;10.57;;
81725;SDS011;71135;16.738;-14.648;2024-01-30T01:03:54;18.25;;;12.13;;
81725;SDS011;71135;16.738;-14.648;2024-01-30T01:06:24;17.50;;;10.95;;
81725;SDS011;71135;16.738;-14.648;2024-01-30T01:08:53;16.15;;;10.40;;
81725;SDS011;71135;16.738;-14.648;2024-01-30T01:11:22;17.05;;;10.75;;
81725;SDS011;71135;16.738;-14.648;2024-01-30T01:13:51;17.00;;;10.43;;
81725;SDS011;71135;16.738;-14.648;2024-01-30T01:16:23;18.55;;;10.63;;
81725;SDS011;71135;16.738;-14.648;2024-01-30T01:21:46;16.55;;;10.63;;
81725;SDS011;71135;16.738;-14.648;2024-01-30T01:24:15;19.70;;;11.15;;
81725;SDS011;71135;16.738;-14.648;2024-01-30T01:26:45;18.05;;;10.57;;
81725;SDS011;71135;16.738;-14.648;2024-01-30T01:29:14;18.05;;;10.55;;
81725;SDS011;71135;16.738;-14.648;2024-01-30T01:31:46;18.30;;;11.23;;
81725;SDS011;71135;16.738;-14.648;2024-01-30T01:34:15;18.70;;;10.88;;
81725;SDS011;71135;16.738;-14.648;2024-01-30T01:36:44;16.88;;;10.57;;
81725;SDS011;71135;16.738;-14.648;2024-01-30T01:39:13;16.30;;;11.00;;
81725;SDS011;71135;16.738;-14.648;2024-01-30T01:41:42;16.42;;;10.38;;
81725;SDS011;71135;16.738;-14.648;2024-01-30T01:44:11;16.90;;;10.95;;
81725;SDS011;71135;16.738;-14.648;2024-01-30T01:46:40;17.27;;;10.75;;
81725;SDS011;71135;16.738;-14.648;2024-01-30T01:49:12;16.98;;;10.75;;
81725;SDS011;71135;16.738;-14.648;2024-01-30T01:51:43;16.80;;;9.65;;
81725;SDS011;71135;16.738;-14.648;2024-01-30T01:54:13;18.20;;;10.20;;
81725;SDS011;71135;16.738;-14.648;2024-01-30T01:56:43;16.13;;;10.55;;
81725;SDS011;71135;16.738;-14.648;2024-01-30T01:59:13;18.00;;;10.55;;
81725;SDS011;71135;16.738;-14.648;2024-01-30T02:05:07;18.65;;;11.43;;
81725;SDS011;71135;16.738;-14.648;2024-01-30T02:11:05;17.27;;;10.50;;
81725;SDS011;71135;16.738;-14.648;2024-01-30T02:13:43;18.20;;;10.38;;
81725;SDS011;71135;16.738;-14.648;2024-01-30T02:16:12;15.43;;;9.73;;
81725;SDS011;71135;16.738;-14.648;2024-01-30T02:18:41;19.25;;;10.38;;
81725;SDS011;71135;16.738;-14.648;2024-01-30T02:21:15;16.15;;;10.02;;
81725;SDS011;71135;16.738;-14.648;2024-01-30T02:23:45;17.10;;;10.18;;
81725;SDS011;71135;16.738;-14.648;2024-01-30T02:26:15;17.73;;;10.38;;
81725;SDS011;71135;16.738;-14.648;2024-01-30T02:28:44;18.33;;;11.15;;
81725;SDS011;71135;16.738;-14.648;2024-01-30T02:31:13;16.98;;;10.45;;
81725;SDS011;71135;16.738;-14.648;2024-01-30T02:33:42;17.90;;;9.90;;
81725;SDS011;71135;16.738;-14.648;2024-01-30T02:36:11;16.13;;;10.10;;
81725;SDS011;71135;16.738;-14.648;2024-01-30T02:38:44;15.88;;;10.00;;
81725;SDS011;71135;16.738;-14.648;2024-01-30T02:41:13;16.00;;;10.23;;
81725;SDS011;71135;16.738;-14.648;2024-01-30T02:43:42;15.95;;;10.55;;
81725;SDS011;71135;16.738;-14.648;2024-01-30T02:46:11;20.35;;;10.18;;
81725;SDS011;71135;16.738;-14.648;2024-01-30T02:48:40;14.82;;;9.18;;
81725;SDS011;71135;16.738;-14.648;2024-01-30T02:51:09;15.18;;;10.15;;
81725;SDS011;71135;16.738;-14.648;2024-01-30T02:53:41;18.02;;;10.20;;
81725;SDS011;71135;16.738;-14.648;2024-01-30T02:56:10;14.82;;;8.70;;
81725;SDS011;71135;16.738;-14.648;2024-01-30T02:58:39;15.93;;;9.57;;
81725;SDS011;71135;16.738;-14.648;2024-01-30T03:01:06;14.30;;;9.57;;
81725;SDS011;71135;16.738;-14.648;2024-01-30T03:03:35;15.30;;;9.55;;
81725;SDS011;71135;16.738;-14.648;2024-01-30T03:06:06;15.25;;;9.35;;
81725;SDS011;71135;16.738;-14.648;2024-01-30T03:08:35;13.32;;;9.02;;
81725;SDS011;71135;16.738;-14.648;2024-01-30T03:11:07;16.45;;;9.10;;
81725;SDS011;71135;16.738;-14.648;2024-01-30T03:13:36;13.63;;;8.82;;
81725;SDS011;71135;16.738;-14.648;2024-01-30T03:16:06;17.75;;;9.63;;
81725;SDS011;71135;16.738;-14.648;2024-01-30T03:18:36;16.00;;;9.95;;
81725;SDS011;71135;16.738;-14.648;2024-01-30T03:21:05;17.15;;;9.02;;
81725;SDS011;71135;16.738;-14.648;2024-01-30T03:23:35;13.52;;;8.45;;
81725;SDS011;71135;16.738;-14.648;2024-01-30T03:26:04;13.93;;;9.25;;
81725;SDS011;71135;16.738;-14.648;2024-01-30T03:28:36;15.35;;;10.02;;
81725;SDS011;71135;16.738;-14.648;2024-01-30T03:31:06;13.63;;;8.82;;
81725;SDS011;71135;16.738;-14.648;2024-01-30T03:33:36;12.35;;;8.50;;
81725;SDS011;71135;16.738;-14.648;2024-01-30T03:39:12;14.65;;;8.57;;
81725;SDS011;71135;16.738;-14.648;2024-01-30T03:44:22;13.85;;;8.63;;
81725;SDS011;71135;16.738;-14.648;2024-01-30T03:46:51;14.52;;;9.45;;
81725;SDS011;71135;16.738;-14.648;2024-01-30T03:49:20;13.85;;;8.68;;
81725;SDS011;71135;16.738;-14.648;2024-01-30T03:51:49;13.63;;;8.35;;
81725;SDS011;71135;16.738;-14.648;2024-01-30T03:54:18;13.73;;;9.20;;
81725;SDS011;71135;16.738;-14.648;2024-01-30T03:56:48;15.93;;;9.13;;
81725;SDS011;71135;16.738;-14.648;2024-01-30T03:59:19;13.88;;;8.80;;
81725;SDS011;71135;16.738;-14.648;2024-01-30T04:01:49;15.38;;;8.05;;
81725;SDS011;71135;16.738;-14.648;2024-01-30T04:04:19;13.60;;;8.82;;
81725;SDS011;71135;16.738;-14.648;2024-01-30T04:06:48;12.77;;;8.77;;
81725;SDS011;71135;16.738;-14.648;2024-01-30T04:09:17;14.20;;;9.30;;
81725;SDS011;71135;16.738;-14.648;2024-01-30T04:11:47;12.02;;;8.25;;
81725;SDS011;71135;16.738;-14.648;2024-01-30T04:14:16;13.88;;;8.88;;
81725;SDS011;71135;16.738;-14.648;2024-01-30T04:16:47;13.57;;;8.90;;
81725;SDS011;71135;16.738;-14.648;2024-01-30T04:19:17;12.73;;;8.32;;
81725;SDS011;71135;16.738;-14.648;2024-01-30T04:21:46;13.27;;;8.80;;
81725;SDS011;71135;16.738;-14.648;2024-01-30T04:24:15;16.95;;;9.27;;
81725;SDS011;71135;16.738;-14.648;2024-01-30T04:26:44;14.90;;;8.75;;
81725;SDS011;71135;16.738;-14.648;2024-01-30T04:29:14;16.55;;;9.10;;
81725;SDS011;71135;16.738;-14.648;2024-01-30T04:31:43;12.98;;;8.32;;
81725;SDS011;71135;16.738;-14.648;2024-01-30T04:34:14;15.98;;;9.00;;
81725;SDS011;71135;16.738;-14.648;2024-01-30T04:36:43;15.75;;;9.57;;
81725;SDS011;71135;16.738;-14.648;2024-01-30T04:39:13;16.35;;;9.43;;
81725;SDS011;71135;16.738;-14.648;2024-01-30T04:41:42;15.60;;;10.15;;
81725;SDS011;71135;16.738;-14.648;2024-01-30T04:44:11;13.68;;;8.48;;
81725;SDS011;71135;16.738;-14.648;2024-01-30T04:46:40;16.67;;;9.35;;
81725;SDS011;71135;16.738;-14.648;2024-01-30T04:49:10;17.38;;;9.38;;
81725;SDS011;71135;16.738;-14.648;2024-01-30T04:51:41;15.52;;;9.50;;
81725;SDS011;71135;16.738;-14.648;2024-01-30T04:54:11;17.85;;;10.40;;
81725;SDS011;71135;16.738;-14.648;2024-01-30T04:56:40;15.48;;;9.50;;
81725;SDS011;71135;16.738;-14.648;2024-01-30T04:59:09;14.57;;;9.35;;
81725;SDS011;71135;16.738;-14.648;2024-01-30T05:01:38;16.13;;;10.02;;
81725;SDS011;71135;16.738;-14.648;2024-01-30T05:04:07;16.98;;;9.93;;
81725;SDS011;71135;16.738;-14.648;2024-01-30T05:06:37;15.75;;;8.63;;
81725;SDS011;71135;16.738;-14.648;2024-01-30T05:09:09;15.63;;;9.77;;
81725;SDS011;71135;16.738;-14.648;2024-01-30T05:11:38;17.50;;;9.80;;
81725;SDS011;71135;16.738;-14.648;2024-01-30T05:14:08;16.08;;;9.18;;
81725;SDS011;71135;16.738;-14.648;2024-01-30T05:16:37;13.60;;;9.63;;
81725;SDS011;71135;16.738;-14.648;2024-01-30T05:19:06;15.63;;;9.82;;
81725;SDS011;71135;16.738;-14.648;2024-01-30T05:21:35;13.45;;;8.95;;
81725;SDS011;71135;16.738;-14.648;2024-01-30T05:24:05;12.88;;;9.02;;
81725;SDS011;71135;16.738;-14.648;2024-01-30T05:26:38;12.23;;;8.80;;
81725;SDS011;71135;16.738;-14.648;2024-01-30T05:29:07;13.25;;;8.25;;
81725;SDS011;71135;16.738;-14.648;2024-01-30T05:31:36;11.45;;;8.48;;
81725;SDS011;71135;16.738;-14.648;2024-01-30T05:34:05;14.88;;;8.63;;
81725;SDS011;71135;16.738;-14.648;2024-01-30T05:36:35;13.95;;;8.43;;
81725;SDS011;71135;16.738;-14.648;2024-01-30T05:39:04;11.25;;;7.65;;
81725;SDS011;71135;16.738;-14.648;2024-01-30T05:41:33;11.80;;;8.00;;
81725;SDS011;71135;16.738;-14.648;2024-01-30T05:44:05;11.55;;;7.43;;
81725;SDS011;71135;16.738;-14.648;2024-01-30T05:46:34;12.75;;;8.02;;
81725;SDS011;71135;16.738;-14.648;2024-01-30T05:49:04;12.77;;;8.18;;
81725;SDS011;71135;16.738;-14.648;2024-01-30T05:51:33;15.85;;;8.70;;
81725;SDS011;71135;16.738;-14.648;2024-01-30T05:54:02;14.82;;;9.25;;
81725;SDS011;71135;16.738;-14.648;2024-01-30T05:56:31;13.55;;;8.02;;
81725;SDS011;71135;16.738;-14.648;2024-01-30T05:59:00;13.60;;;7.75;;
81725;SDS011;71135;16.738;-14.648;2024-01-30T06:01:32;12.07;;;7.38;;
81725;SDS011;71135;16.738;-14.648;2024-01-30T06:04:01;12.88;;;7.93;;
81725;SDS011;71135;16.738;-14.648;2024-01-30T06:06:30;13.05;;;7.97;;
81725;SDS011;71135;16.738;-14.648;2024-01-30T06:08:59;12.40;;;7.75;;
81725;SDS011;71135;16.738;-14.648;2024-01-30T06:11:29;16.48;;;8.23;;
81725;SDS011;71135;16.738;-14.648;2024-01-30T06:13:58;14.05;;;7.40;;
81725;SDS011;71135;16.738;-14.648;2024-01-30T06:16:27;12.82;;;7.63;;
81725;SDS011;71135;16.738;-14.648;2024-01-30T06:18:59;14.07;;;8.02;;
81725;SDS011;71135;16.738;-14.648;2024-01-30T06:21:28;12.85;;;7.80;;
81725;SDS011;71135;16.738;-14.648;2024-01-30T06:23:59;12.07;;;7.53;;
81725;SDS011;71135;16.738;-14.648;2024-01-30T06:26:28;12.25;;;7.47;;
81725;SDS011;71135;16.738;-14.648;2024-01-30T06:28:58;11.95;;;7.25;;
81725;SDS011;71135;16.738;-14.648;2024-01-30T06:31:27;13.23;;;8.18;;
81725;SDS011;71135;16.738;-14.648;2024-01-30T06:33:59;13.98;;;9.15;;
81725;SDS011;71135;16.738;-14.648;2024-01-30T06:36:28;12.90;;;8.18;;
81725;SDS011;71135;16.738;-14.648;2024-01-30T06:38:57;13.70;;;8.25;;
81725;SDS011;71135;16.738;-14.648;2024-01-30T06:41:26;12.23;;;8.60;;
81725;SDS011;71135;16.738;-14.648;2024-01-30T06:43:55;15.23;;;8.00;;
81725;SDS011;71135;16.738;-14.648;2024-01-30T06:46:25;14.90;;;7.85;;
81725;SDS011;71135;16.738;-14.648;2024-01-30T06:48:54;10.77;;;7.55;;
81725;SDS011;71135;16.738;-14.648;2024-01-30T06:51:25;13.40;;;8.13;;
81725;SDS011;71135;16.738;-14.648;2024-01-30T06:53:55;13.05;;;7.90;;
81725;SDS011;71135;16.738;-14.648;2024-01-30T06:56:24;11.68;;;8.27;;
81725;SDS011;71135;16.738;-14.648;2024-01-30T06:58:53;12.57;;;7.88;;
81725;SDS011;71135;16.738;-14.648;2024-01-30T07:01:27;13.55;;;7.38;;
81725;SDS011;71135;16.738;-14.648;2024-01-30T07:03:56;17.02;;;8.43;;
81725;SDS011;71135;16.738;-14.648;2024-01-30T07:06:28;13.80;;;7.00;;
81725;SDS011;71135;16.738;-14.648;2024-01-30T07:08:57;13.75;;;8.00;;
81725;SDS011;71135;16.738;-14.648;2024-01-30T07:11:26;15.20;;;8.27;;
81725;SDS011;71135;16.738;-14.648;2024-01-30T07:13:56;13.48;;;8.10;;
81725;SDS011;71135;16.738;-14.648;2024-01-30T07:16:25;15.68;;;7.90;;
81725;SDS011;71135;16.738;-14.648;2024-01-30T07:18:54;11.13;;;7.10;;
81725;SDS011;71135;16.738;-14.648;2024-01-30T07:21:23;13.15;;;7.88;;
81725;SDS011;71135;16.738;-14.648;2024-01-30T07:23:56;13.07;;;7.95;;
81725;SDS011;71135;16.738;-14.648;2024-01-30T07:26:25;11.40;;;7.78;;
81725;SDS011;71135;16.738;-14.648;2024-01-30T07:28:55;11.95;;;7.85;;
81725;SDS011;71135;16.738;-14.648;2024-01-30T07:31:24;13.85;;;7.80;;
81725;SDS011;71135;16.738;-14.648;2024-01-30T07:33:53;14.35;;;8.18;;
81725;SDS011;71135;16.738;-14.648;2024-01-30T07:36:22;14.25;;;7.45;;
81725;SDS011;71135;16.738;-14.648;2024-01-30T07:38:52;15.30;;;7.55;;
81725;SDS011;71135;16.738;-14.648;2024-01-30T07:41:24;12.75;;;7.28;;
81725;SDS011;71135;16.738;-14.648;2024-01-30T07:43:53;12.88;;;7.93;;
81725;SDS011;71135;16.738;-14.648;2024-01-30T07:46:22;13.52;;;8.10;;
81725;SDS011;71135;16.738;-14.648;2024-01-30T07:48:51;14.73;;;8.07;;
81725;SDS011;71135;16.738;-14.648;2024-01-30T07:51:21;14.90;;;8.05;;
81725;SDS011;71135;16.738;-14.648;2024-01-30T07:53:54;13.60;;;7.97;;
81725;SDS011;71135;16.738;-14.648;2024-01-30T07:58:58;13.55;;;8.27;;
81725;SDS011;71135;16.738;-14.648;2024-01-30T08:01:27;13.02;;;7.75;;
81725;SDS011;71135;16.738;-14.648;2024-01-30T08:03:56;14.38;;;8.10;;
81725;SDS011;71135;16.738;-14.648;2024-01-30T08:06:25;10.68;;;7.45;;
81725;SDS011;71135;16.738;-14.648;2024-01-30T08:08:54;13.95;;;7.25;;
81725;SDS011;71135;16.738;-14.648;2024-01-30T08:11:27;14.45;;;8.00;;
81725;SDS011;71135;16.738;-14.648;2024-01-30T08:13:57;14.45;;;7.60;;
81725;SDS011;71135;16.738;-14.648;2024-01-30T08:16:26;14.13;;;7.70;;
81725;SDS011;71135;16.738;-14.648;2024-01-30T08:18:55;13.00;;;7.78;;
81725;SDS011;71135;16.738;-14.648;2024-01-30T08:21:24;11.80;;;7.18;;
81725;SDS011;71135;16.738;-14.648;2024-01-30T08:23:53;14.13;;;6.68;;
81725;SDS011;71135;16.738;-14.648;2024-01-30T08:26:22;14.20;;;7.30;;
81725;SDS011;71135;16.738;-14.648;2024-01-30T08:28:54;13.75;;;7.57;;
81725;SDS011;71135;16.738;-14.648;2024-01-30T08:31:23;12.10;;;6.75;;
81725;SDS011;71135;16.738;-14.648;2024-01-30T08:33:52;12.82;;;7.43;;
81725;SDS011;71135;16.738;-14.648;2024-01-30T08:36:22;15.00;;;7.45;;
81725;SDS011;71135;16.738;-14.648;2024-01-30T08:38:51;14.40;;;6.85;;
81725;SDS011;71135;16.738;-14.648;2024-01-30T08:41:20;15.02;;;7.93;;
81725;SDS011;71135;16.738;-14.648;2024-01-30T08:43:50;13.50;;;7.18;;
81725;SDS011;71135;16.738;-14.648;2024-01-30T08:46:22;11.65;;;7.00;;
81725;SDS011;71135;16.738;-14.648;2024-01-30T08:48:51;12.18;;;6.90;;
81725;SDS011;71135;16.738;-14.648;2024-01-30T08:51:20;12.27;;;6.97;;
81725;SDS011;71135;16.738;-14.648;2024-01-30T08:53:50;10.43;;;6.30;;
81725;SDS011;71135;16.738;-14.648;2024-01-30T08:56:19;13.32;;;8.32;;
81725;SDS011;71135;16.738;-14.648;2024-01-30T08:58:49;11.90;;;6.68;;
81725;SDS011;71135;16.738;-14.648;2024-01-30T09:01:20;11.80;;;6.78;;
81725;SDS011;71135;16.738;-14.648;2024-01-30T09:03:49;12.32;;;6.20;;
81725;SDS011;71135;16.738;-14.648;2024-01-30T09:06:19;13.10;;;7.22;;
81725;SDS011;71135;16.738;-14.648;2024-01-30T09:08:48;16.52;;;7.30;;
81725;SDS011;71135;16.738;-14.648;2024-01-30T09:11:17;12.52;;;6.85;;
81725;SDS011;71135;16.738;-14.648;2024-01-30T09:13:46;16.05;;;7.20;;
81725;SDS011;71135;16.738;-14.648;2024-01-30T09:16:16;10.57;;;6.90;;
81725;SDS011;71135;16.738;-14.648;2024-01-30T09:18:48;12.15;;;6.82;;
81725;SDS011;71135;16.738;-14.648;2024-01-30T09:21:17;17.23;;;7.28;;
81725;SDS011;71135;16.738;-14.648;2024-01-30T09:23:46;12.35;;;7.55;;
81725;SDS011;71135;16.738;-14.648;2024-01-30T09:26:15;13.05;;;7.22;;
81725;SDS011;71135;16.738;-14.648;2024-01-30T09:28:44;12.93;;;7.22;;
81725;SDS011;71135;16.738;-14.648;2024-01-30T09:31:13;17.50;;;7.63;;
81725;SDS011;71135;16.738;-14.648;2024-01-30T09:33:42;13.75;;;7.45;;
81725;SDS011;71135;16.738;-14.648;2024-01-30T09:36:16;14.52;;;7.60;;
81725;SDS011;71135;16.738;-14.648;2024-01-30T09:38:46;16.67;;;8.65;;
81725;SDS011;71135;16.738;-14.648;2024-01-30T09:41:15;12.75;;;7.10;;
81725;SDS011;71135;16.738;-14.648;2024-01-30T09:43:47;13.63;;;7.50;;
81725;SDS011;71135;16.738;-14.648;2024-01-30T09:46:17;13.77;;;7.68;;
81725;SDS011;71135;16.738;-14.648;2024-01-30T09:48:49;15.70;;;7.10;;
81725;SDS011;71135;16.738;-14.648;2024-01-30T09:51:19;12.65;;;6.53;;
81725;SDS011;71135;16.738;-14.648;2024-01-30T09:53:49;16.70;;;7.82;;
81725;SDS011;71135;16.738;-14.648;2024-01-30T09:56:18;13.75;;;7.38;;
81725;SDS011;71135;16.738;-14.648;2024-01-30T09:58:49;15.60;;;7.13;;
81725;SDS011;71135;16.738;-14.648;2024-01-30T10:01:18;12.50;;;7.13;;
81725;SDS011;71135;16.738;-14.648;2024-01-30T10:03:50;13.07;;;7.10;;
81725;SDS011;71135;16.738;-14.648;2024-01-30T10:06:23;15.70;;;7.68;;
81725;SDS011;71135;16.738;-14.648;2024-01-30T10:08:53;14.13;;;6.78;;
81725;SDS011;71135;16.738;-14.648;2024-01-30T10:11:22;11.25;;;7.55;;
81725;SDS011;71135;16.738;-14.648;2024-01-30T10:13:52;13.93;;;7.57;;
81725;SDS011;71135;16.738;-14.648;2024-01-30T10:16:21;14.98;;;7.82;;
81725;SDS011;71135;16.738;-14.648;2024-01-30T10:18:50;13.77;;;7.78;;
81725;SDS011;71135;16.738;-14.648;2024-01-30T10:21:21;15.20;;;7.43;;
81725;SDS011;71135;16.738;-14.648;2024-01-30T10:23:53;13.75;;;7.28;;
81725;SDS011;71135;16.738;-14.648;2024-01-30T10:26:22;13.98;;;8.15;;
81725;SDS011;71135;16.738;-14.648;2024-01-30T10:28:51;11.30;;;7.13;;
81725;SDS011;71135;16.738;-14.648;2024-01-30T10:31:21;12.35;;;7.40;;
81725;SDS011;71135;16.738;-14.648;2024-01-30T10:33:50;18.52;;;7.65;;
81725;SDS011;71135;16.738;-14.648;2024-01-30T10:36:20;12.95;;;7.25;;
81725;SDS011;71135;16.738;-14.648;2024-01-30T10:38:57;11.68;;;7.75;;
81725;SDS011;71135;16.738;-14.648;2024-01-30T10:41:28;11.30;;;7.40;;
81725;SDS011;71135;16.738;-14.648;2024-01-30T10:44:07;9.52;;;6.63;;
81725;SDS011;71135;16.738;-14.648;2024-01-30T10:46:37;11.27;;;6.68;;
81725;SDS011;71135;16.738;-14.648;2024-01-30T10:49:07;9.32;;;6.40;;
81725;SDS011;71135;16.738;-14.648;2024-01-30T10:51:40;9.88;;;5.97;;
81725;SDS011;71135;16.738;-14.648;2024-01-30T10:54:10;8.82;;;6.35;;
81725;SDS011;71135;16.738;-14.648;2024-01-30T10:56:41;11.48;;;7.32;;
81725;SDS011;71135;16.738;-14.648;2024-01-30T10:59:11;12.20;;;5.68;;
81725;SDS011;71135;16.738;-14.648;2024-01-30T11:01:41;10.80;;;5.90;;
81725;SDS011;71135;16.738;-14.648;2024-01-30T11:04:11;8.50;;;5.15;;
81725;SDS011;71135;16.738;-14.648;2024-01-30T11:06:43;8.88;;;3.92;;
81725;SDS011;71135;16.738;-14.648;2024-01-30T11:09:12;6.30;;;3.55;;
81725;SDS011;71135;16.738;-14.648;2024-01-30T11:11:49;8.35;;;3.90;;
81725;SDS011;71135;16.738;-14.648;2024-01-30T11:14:25;9.73;;;2.90;;
81725;SDS011;71135;16.738;-14.648;2024-01-30T11:16:56;5.70;;;2.50;;
81725;SDS011;71135;16.738;-14.648;2024-01-30T11:19:26;8.85;;;2.72;;
81725;SDS011;71135;16.738;-14.648;2024-01-30T11:21:59;6.55;;;2.20;;
81725;SDS011;71135;16.738;-14.648;2024-01-30T11:24:28;3.83;;;2.30;;
81725;SDS011;71135;16.738;-14.648;2024-01-30T11:26:57;6.18;;;2.30;;
81725;SDS011;71135;16.738;-14.648;2024-01-30T11:29:27;4.68;;;2.20;;
81725;SDS011;71135;16.738;-14.648;2024-01-30T11:31:58;2.80;;;1.23;;
81725;SDS011;71135;16.738;-14.648;2024-01-30T11:34:28;3.83;;;0.65;;
81725;SDS011;71135;16.738;-14.648;2024-01-30T11:37:01;2.30;;;0.73;;
81725;SDS011;71135;16.738;-14.648;2024-01-30T11:39:36;2.78;;;1.10;;
81725;SDS011;71135;16.738;-14.648;2024-01-30T11:42:07;3.70;;;0.68;;
81725;SDS011;71135;16.738;-14.648;2024-01-30T11:44:37;0.90;;;0.77;;
81725;SDS011;71135;16.738;-14.648;2024-01-30T11:47:06;2.00;;;0.80;;
81725;SDS011;71135;16.738;-14.648;2024-01-30T11:49:35;5.88;;;1.15;;
81725;SDS011;71135;16.738;-14.648;2024-01-30T11:52:07;3.58;;;1.08;;
81725;SDS011;71135;16.738;-14.648;2024-01-30T11:54:38;3.35;;;0.80;;
81725;SDS011;71135;16.738;-14.648;2024-01-30T11:57:08;1.23;;;0.40;;
81725;SDS011;71135;16.738;-14.648;2024-01-30T11:59:37;5.15;;;0.80;;
81725;SDS011;71135;16.738;-14.648;2024-01-30T12:02:09;1.95;;;0.50;;
81725;SDS011;71135;16.738;-14.648;2024-01-30T12:04:44;3.53;;;0.52;;
81725;SDS011;71135;16.738;-14.648;2024-01-30T12:07:16;3.20;;;0.77;;
81725;SDS011;71135;16.738;-14.648;2024-01-30T12:09:51;4.53;;;0.77;;
81725;SDS011;71135;16.738;-14.648;2024-01-30T12:12:21;3.30;;;0.47;;
81725;SDS011;71135;16.738;-14.648;2024-01-30T12:14:51;4.20;;;0.90;;
81725;SDS011;71135;16.738;-14.648;2024-01-30T12:17:25;3.20;;;0.60;;
81725;SDS011;71135;16.738;-14.648;2024-01-30T12:20:03;1.45;;;0.60;;
81725;SDS011;71135;16.738;-14.648;2024-01-30T12:22:38;1.80;;;0.80;;
81725;SDS011;71135;16.738;-14.648;2024-01-30T12:25:18;5.95;;;1.10;;
81725;SDS011;71135;16.738;-14.648;2024-01-30T12:27:49;3.08;;;0.95;;
81725;SDS011;71135;16.738;-14.648;2024-01-30T12:33:05;1.70;;;0.80;;
81725;SDS011;71135;16.738;-14.648;2024-01-30T12:35:35;2.22;;;1.10;;
81725;SDS011;71135;16.738;-14.648;2024-01-30T12:38:07;5.95;;;1.10;;
81725;SDS011;71135;16.738;-14.648;2024-01-30T12:40:46;3.13;;;0.90;;
81725;SDS011;71135;16.738;-14.648;2024-01-30T12:43:15;7.72;;;1.35;;
81725;SDS011;71135;16.738;-14.648;2024-01-30T12:45:45;6.95;;;1.35;;
81725;SDS011;71135;16.738;-14.648;2024-01-30T12:51:14;2.97;;;0.82;;
81725;SDS011;71135;16.738;-14.648;2024-01-30T12:53:46;3.47;;;0.95;;
81725;SDS011;71135;16.738;-14.648;2024-01-30T12:56:15;2.42;;;0.70;;
81725;SDS011;71135;16.738;-14.648;2024-01-30T12:58:44;3.97;;;1.13;;
81725;SDS011;71135;16.738;-14.648;2024-01-30T13:01:14;5.72;;;1.08;;
81725;SDS011;71135;16.738;-14.648;2024-01-30T13:03:43;3.15;;;0.77;;
81725;SDS011;71135;16.738;-14.648;2024-01-30T13:06:12;3.42;;;1.05;;
81725;SDS011;71135;16.738;-14.648;2024-01-30T13:08:41;6.20;;;0.93;;
81725;SDS011;71135;16.738;-14.648;2024-01-30T13:11:13;3.35;;;0.90;;
81725;SDS011;71135;16.738;-14.648;2024-01-30T13:13:42;2.25;;;0.73;;
81725;SDS011;71135;16.738;-14.648;2024-01-30T13:16:11;4.05;;;1.30;;
81725;SDS011;71135;16.738;-14.648;2024-01-30T13:18:40;5.72;;;1.10;;
81725;SDS011;71135;16.738;-14.648;2024-01-30T13:21:09;3.40;;;0.88;;
81725;SDS011;71135;16.738;-14.648;2024-01-30T13:23:38;5.30;;;0.73;;
81725;SDS011;71135;16.738;-14.648;2024-01-30T13:26:08;3.38;;;1.10;;
81725;SDS011;71135;16.738;-14.648;2024-01-30T13:28:40;7.40;;;1.48;;
81725;SDS011;71135;16.738;-14.648;2024-01-30T13:31:09;2.85;;;1.10;;
81725;SDS011;71135;16.738;-14.648;2024-01-30T13:33:39;3.65;;;1.20;;
81725;SDS011;71135;16.738;-14.648;2024-01-30T13:36:08;5.10;;;1.13;;
81725;SDS011;71135;16.738;-14.648;2024-01-30T13:38:38;3.70;;;1.15;;
81725;SDS011;71135;16.738;-14.648;2024-01-30T13:41:08;2.88;;;1.50;;
81725;SDS011;71135;16.738;-14.648;2024-01-30T13:43:37;7.05;;;1.60;;
81725;SDS011;71135;16.738;-14.648;2024-01-30T13:46:08;5.60;;;1.50;;
81725;SDS011;71135;16.738;-14.648;2024-01-30T13:48:38;3.35;;;1.33;;
81725;SDS011;71135;16.738;-14.648;2024-01-30T13:51:07;5.30;;;2.10;;
81725;SDS011;71135;16.738;-14.648;2024-01-30T13:53:36;5.25;;;1.95;;
81725;SDS011;71135;16.738;-14.648;2024-01-30T13:56:06;5.07;;;1.67;;
81725;SDS011;71135;16.738;-14.648;2024-01-30T13:58:35;4.72;;;1.50;;
81725;SDS011;71135;16.738;-14.648;2024-01-30T14:01:04;7.32;;;1.70;;
81725;SDS011;71135;16.738;-14.648;2024-01-30T14:03:38;4.85;;;2.05;;
81725;SDS011;71135;16.738;-14.648;2024-01-30T14:06:07;4.35;;;1.38;;
81725;SDS011;71135;16.738;-14.648;2024-01-30T14:08:36;3.13;;;1.65;;
81725;SDS011;71135;16.738;-14.648;2024-01-30T14:11:05;4.30;;;1.67;;
81725;SDS011;71135;16.738;-14.648;2024-01-30T14:13:34;6.97;;;1.45;;
81725;SDS011;71135;16.738;-14.648;2024-01-30T14:16:04;3.53;;;1.77;;
81725;SDS011;71135;16.738;-14.648;2024-01-30T14:18:34;3.30;;;1.90;;
81725;SDS011;71135;16.738;-14.648;2024-01-30T14:21:05;1.52;;;1.00;;
81725;SDS011;71135;16.738;-14.648;2024-01-30T14:23:34;3.38;;;1.70;;
81725;SDS011;71135;16.738;-14.648;2024-01-30T14:26:04;2.30;;;1.48;;
81725;SDS011;71135;16.738;-14.648;2024-01-30T14:28:34;4.35;;;1.52;;
81725;SDS011;71135;16.738;-14.648;2024-01-30T14:31:03;4.55;;;1.50;;
81725;SDS011;71135;16.738;-14.648;2024-01-30T14:33:32;2.20;;;1.25;;
81725;SDS011;71135;16.738;-14.648;2024-01-30T14:36:01;2.75;;;2.00;;
81725;SDS011;71135;16.738;-14.648;2024-01-30T14:41:39;2.72;;;1.40;;
81725;SDS011;71135;16.738;-14.648;2024-01-30T14:44:08;2.17;;;1.42;;
81725;SDS011;71135;16.738;-14.648;2024-01-30T14:46:37;3.50;;;1.50;;
81725;SDS011;71135;16.738;-14.648;2024-01-30T14:49:06;4.03;;;1.73;;
81725;SDS011;71135;16.738;-14.648;2024-01-30T14:51:35;3.10;;;1.50;;
81725;SDS011;71135;16.738;-14.648;2024-01-30T14:54:04;4.30;;;1.33;;